createdAt,value
2016-12-14T00:00:45.295Z,95.65
2016-12-14T00:02:02.368Z,95.56
2016-12-14T00:03:18.126Z,95.84
2016-12-14T00:04:33.397Z,95.27
2016-12-14T00:05:50.291Z,95.08
2016-12-14T00:07:02.310Z,95.36
2016-12-14T00:08:15.389Z,95.46
2016-12-14T00:09:30.638Z,95.08
2016-12-14T00:10:45.335Z,95.08
2016-12-14T00:11:59.358Z,94.89
2016-12-14T00:13:15.251Z,95.08
2016-12-14T00:14:30.394Z,95.08
2016-12-14T00:15:44.029Z,95.08
2016-12-14T00:16:59.994Z,95.08
2016-12-14T00:18:15.493Z,94.98
2016-12-14T00:19:27.758Z,95.27
2016-12-14T00:20:41.305Z,94.98
2016-12-14T00:21:54.808Z,95.17
2016-12-14T00:23:08.418Z,95.27
2016-12-14T00:24:24.735Z,94.79
2016-12-14T00:25:39.840Z,94.7
2016-12-14T00:26:55.260Z,94.51
2016-12-14T00:28:11.469Z,94.42
2016-12-14T00:29:27.504Z,94.51
2016-12-14T00:30:42.606Z,95.17
2016-12-14T00:31:57.296Z,95.36
2016-12-14T00:33:10.509Z,95.08
2016-12-14T00:34:26.812Z,95.08
2016-12-14T00:35:41.523Z,94.6
2016-12-14T00:36:56.316Z,95.27
2016-12-14T00:38:10.935Z,95.27
2016-12-14T00:39:26.365Z,95.17
2016-12-14T00:40:42.013Z,94.98
2016-12-14T00:41:57.752Z,94.89
2016-12-14T00:43:11.233Z,95.08
2016-12-14T00:44:26.598Z,94.98
2016-12-14T00:45:41.429Z,95.08
2016-12-14T00:46:56.349Z,95.65
2016-12-14T00:48:12.927Z,95.27
2016-12-14T00:49:28.818Z,95.84
2016-12-14T00:50:44.727Z,95.65
2016-12-14T00:51:58.053Z,94.98
2016-12-14T00:53:14.563Z,95.08
2016-12-14T00:54:29.186Z,95.08
2016-12-14T00:55:42.647Z,95.08
2016-12-14T00:56:56.670Z,94.89
2016-12-14T00:58:12.809Z,94.89
2016-12-14T00:59:28.702Z,95.08
2016-12-14T01:00:44.347Z,94.98
2016-12-14T01:01:58.800Z,95.08
2016-12-14T01:03:15.277Z,95.08
2016-12-14T01:04:30.304Z,95.08
2016-12-14T01:05:46.443Z,94.89
2016-12-14T01:07:03.157Z,94.98
2016-12-14T01:08:19.657Z,95.65
2016-12-14T01:09:35.692Z,95.84
2016-12-14T01:10:50.777Z,95.84
2016-12-14T01:12:06.533Z,95.56
2016-12-14T01:13:20.007Z,95.56
2016-12-14T01:14:35.102Z,95.46
2016-12-14T01:15:49.360Z,95.56
2016-12-14T01:17:03.638Z,95.08
2016-12-14T01:18:20.095Z,95.27
2016-12-14T01:19:35.227Z,95.36
2016-12-14T01:20:51.530Z,95.36
2016-12-14T01:22:03.796Z,95.27
2016-12-14T01:23:16.619Z,95.36
2016-12-14T01:24:32.270Z,95.36
2016-12-14T01:25:45.734Z,95.27
2016-12-14T01:27:02.826Z,95.84
2016-12-14T01:28:16.300Z,95.56
2016-12-14T01:29:31.665Z,95.65
2016-12-14T01:30:47.744Z,95.65
2016-12-14T01:32:00.947Z,95.65
2016-12-14T01:33:17.019Z,95.65
2016-12-14T01:34:30.341Z,95.65
2016-12-14T01:35:44.360Z,96.03
2016-12-14T01:36:58.947Z,95.75
2016-12-14T01:38:14.056Z,95.46
2016-12-14T01:39:30.154Z,95.94
2016-12-14T01:40:46.175Z,96.12
2016-12-14T01:42:00.611Z,95.84
2016-12-14T01:43:13.823Z,95.84
2016-12-14T01:44:30.292Z,96.6
2016-12-14T01:45:44.991Z,96.12
2016-12-14T01:46:58.987Z,96.69
2016-12-14T01:48:15.971Z,96.79
2016-12-14T01:49:28.729Z,96.5
2016-12-14T01:50:44.377Z,96.69
2016-12-14T01:52:00.532Z,96.89
2016-12-14T01:53:15.259Z,97.08
2016-12-14T01:54:29.948Z,97.27
2016-12-14T01:55:44.693Z,97.55
2016-12-14T01:57:00.824Z,97.27
2016-12-14T01:58:15.520Z,96.98
2016-12-14T01:59:30.643Z,97.45
2016-12-14T02:00:43.450Z,97.74
2016-12-14T02:01:58.936Z,97.36
2016-12-14T02:03:13.695Z,97.27
2016-12-14T02:04:30.781Z,97.45
2016-12-14T02:05:47.537Z,97.27
2016-12-14T02:07:02.636Z,97.08
2016-12-14T02:08:17.061Z,97.36
2016-12-14T02:09:33.276Z,97.64
2016-12-14T02:10:46.999Z,97.55
2016-12-14T02:12:01.912Z,97.74
2016-12-14T02:13:15.470Z,97.17
2016-12-14T02:14:30.616Z,97.64
2016-12-14T02:15:47.418Z,97.74
2016-12-14T02:17:04.072Z,97.45
2016-12-14T02:18:17.285Z,98.31
2016-12-14T02:19:31.575Z,98.22
2016-12-14T02:20:47.345Z,98.12
2016-12-14T02:22:02.646Z,98.12
2016-12-14T02:23:16.006Z,98.03
2016-12-14T02:24:32.279Z,98.41
2016-12-14T02:25:47.377Z,97.83
2016-12-14T02:27:00.278Z,98.03
2016-12-14T02:28:16.537Z,98.22
2016-12-14T02:29:29.662Z,98.22
2016-12-14T02:30:41.424Z,98.12
2016-12-14T02:31:55.921Z,98.12
2016-12-14T02:33:12.379Z,98.03
2016-12-14T02:34:28.800Z,98.03
2016-12-14T02:35:43.170Z,97.93
2016-12-14T02:36:57.861Z,97.83
2016-12-14T02:38:12.855Z,97.83
2016-12-14T02:39:26.003Z,98.03
2016-12-14T02:40:39.493Z,98.22
2016-12-14T02:41:53.781Z,98.03
2016-12-14T02:43:09.511Z,98.22
2016-12-14T02:44:23.470Z,98.12
2016-12-14T02:45:37.894Z,98.12
2016-12-14T02:46:51.303Z,97.83
2016-12-14T02:48:06.328Z,98.17
2016-12-14T02:49:19.067Z,97.83
2016-12-14T02:50:35.400Z,98.03
2016-12-14T02:51:51.369Z,97.93
2016-12-14T02:53:06.047Z,97.93
2016-12-14T02:54:22.639Z,98.03
2016-12-14T02:55:35.656Z,98.12
2016-12-14T02:56:50.553Z,97.93
2016-12-14T02:58:05.564Z,98.12
2016-12-14T02:59:22.056Z,98.12
2016-12-14T03:00:38.284Z,97.93
2016-12-14T03:01:54.734Z,98.03
2016-12-14T03:03:10.811Z,98.03
2016-12-14T03:04:24.943Z,98.41
2016-12-14T03:05:39.223Z,98.03
2016-12-14T03:06:54.562Z,97.93
2016-12-14T03:08:09.711Z,98.41
2016-12-14T03:09:24.470Z,98.22
2016-12-14T03:10:40.361Z,98.03
2016-12-14T03:11:55.168Z,98.31
2016-12-14T03:13:08.657Z,98.12
2016-12-14T03:14:23.415Z,98.5
2016-12-14T03:15:39.369Z,98.22
2016-12-14T03:16:52.796Z,98.22
2016-12-14T03:18:07.956Z,98.41
2016-12-14T03:19:24.265Z,98.12
2016-12-14T03:20:35.980Z,98.41
2016-12-14T03:21:49.048Z,98.22
2016-12-14T03:23:02.181Z,98.31
2016-12-14T03:24:16.770Z,98.5
2016-12-14T03:25:33.665Z,98.22
2016-12-14T03:26:48.760Z,98.22
2016-12-14T03:28:05.077Z,98.31
2016-12-14T03:29:20.228Z,97.64
2016-12-14T03:30:35.769Z,97.64
2016-12-14T03:31:51.566Z,97.74
2016-12-14T03:33:07.869Z,97.55
2016-12-14T03:34:22.213Z,97.45
2016-12-14T03:35:37.057Z,97.64
2016-12-14T03:36:51.409Z,97.17
2016-12-14T03:38:07.887Z,97.45
2016-12-14T03:39:22.202Z,97.74
2016-12-14T03:40:36.611Z,97.64
2016-12-14T03:41:50.277Z,97.64
2016-12-14T03:43:05.535Z,97.45
2016-12-14T03:44:17.479Z,97.45
2016-12-14T03:45:32.572Z,97.45
2016-12-14T03:46:47.679Z,98.31
2016-12-14T03:48:03.341Z,98.22
2016-12-14T03:49:19.628Z,98.22
2016-12-14T03:50:30.166Z,98.17
2016-12-14T03:51:44.777Z,98.12
2016-12-14T03:52:59.383Z,97.83
2016-12-14T03:54:10.902Z,98.22
2016-12-14T03:55:23.576Z,98.45
2016-12-14T03:56:38.410Z,98.12
2016-12-14T03:57:53.124Z,98.31
2016-12-14T03:59:08.663Z,97.64
2016-12-14T04:00:25.101Z,98.31
2016-12-14T04:01:38.133Z,98.31
2016-12-14T04:02:53.624Z,98.41
2016-12-14T04:04:09.150Z,97.83
2016-12-14T04:05:25.399Z,97.74
2016-12-14T04:06:40.016Z,98.22
2016-12-14T04:07:54.369Z,98.41
2016-12-14T04:09:06.223Z,97.45
2016-12-14T04:10:22.641Z,97.45
2016-12-14T04:11:36.857Z,98.12
2016-12-14T04:12:52.743Z,98.31
2016-12-14T04:14:09.646Z,98.12
2016-12-14T04:15:26.147Z,98.41
2016-12-14T04:16:41.975Z,98.41
2016-12-14T04:17:58.414Z,98.26
2016-12-14T04:19:13.317Z,98.03
2016-12-14T04:20:28.213Z,97.83
2016-12-14T04:21:44.733Z,98.03
2016-12-14T04:22:59.593Z,98.22
2016-12-14T04:24:13.559Z,98.31
2016-12-14T04:25:28.740Z,98.31
2016-12-14T04:26:42.246Z,98.31
2016-12-14T04:27:56.859Z,98.5
2016-12-14T04:29:13.578Z,97.83
2016-12-14T04:30:30.508Z,97.55
2016-12-14T04:31:42.495Z,97.45
2016-12-14T04:32:55.558Z,97.55
2016-12-14T04:34:11.841Z,97.36
2016-12-14T04:35:27.726Z,97.27
2016-12-14T04:36:41.319Z,97.27
2016-12-14T04:37:57.368Z,97.55
2016-12-14T04:39:13.925Z,97.74
2016-12-14T04:40:30.390Z,97.55
2016-12-14T04:41:45.237Z,97.55
2016-12-14T04:42:59.964Z,97.55
2016-12-14T04:44:16.256Z,97.36
2016-12-14T04:45:31.036Z,97.64
2016-12-14T04:46:45.574Z,97.27
2016-12-14T04:48:00.324Z,97.17
2016-12-14T04:49:15.301Z,97.55
2016-12-14T04:50:31.198Z,97.27
2016-12-14T04:51:46.695Z,97.08
2016-12-14T04:52:59.921Z,96.89
2016-12-14T04:54:16.383Z,96.89
2016-12-14T04:55:30.588Z,96.89
2016-12-14T04:56:47.132Z,97.17
2016-12-14T04:58:01.920Z,97.08
2016-12-14T04:59:16.868Z,97.08
2016-12-14T05:00:28.688Z,97.08
2016-12-14T05:01:43.197Z,96.69
2016-12-14T05:02:58.362Z,96.89
2016-12-14T05:04:11.929Z,96.89
2016-12-14T05:05:24.922Z,97.08
2016-12-14T05:06:40.967Z,97.08
2016-12-14T05:07:53.233Z,97.08
2016-12-14T05:09:07.498Z,97.08
2016-12-14T05:10:20.327Z,96.89
2016-12-14T05:11:35.012Z,96.6
2016-12-14T05:12:49.931Z,96.79
2016-12-14T05:14:03.251Z,96.79
2016-12-14T05:15:19.624Z,96.69
2016-12-14T05:16:33.892Z,96.69
2016-12-14T05:17:48.375Z,96.69
2016-12-14T05:19:03.121Z,96.6
2016-12-14T05:20:19.877Z,96.6
2016-12-14T05:21:30.343Z,96.5
2016-12-14T05:22:45.376Z,96.6
2016-12-14T05:23:59.805Z,96.41
2016-12-14T05:25:14.000Z,96.41
2016-12-14T05:26:27.229Z,96.5
2016-12-14T05:27:43.375Z,96.5
2016-12-14T05:28:58.099Z,96.22
2016-12-14T05:30:13.133Z,96.31
2016-12-14T05:31:29.879Z,96.6
2016-12-14T05:32:44.965Z,96.22
2016-12-14T05:34:01.404Z,96.89
2016-12-14T05:35:18.131Z,96.69
2016-12-14T05:36:32.583Z,96.89
2016-12-14T05:37:47.026Z,96.22
2016-12-14T05:39:02.341Z,96.22
2016-12-14T05:40:19.233Z,96.22
2016-12-14T05:41:35.394Z,96.22
2016-12-14T05:42:51.675Z,96.22
2016-12-14T05:44:04.860Z,96.12
2016-12-14T05:45:20.878Z,96.41
2016-12-14T05:46:36.711Z,96.22
2016-12-14T05:47:52.254Z,96.69
2016-12-14T05:49:07.215Z,95.94
2016-12-14T05:50:22.421Z,96.41
2016-12-14T05:51:38.525Z,95.84
2016-12-14T05:52:53.744Z,96.41
2016-12-14T05:54:07.022Z,96.5
2016-12-14T05:55:21.735Z,96.41
2016-12-14T05:56:36.615Z,96.5
2016-12-14T05:57:47.026Z,96.6
2016-12-14T05:59:03.135Z,96.41
2016-12-14T06:00:20.038Z,96.41
2016-12-14T06:01:36.087Z,96.41
2016-12-14T06:02:52.716Z,95.84
2016-12-14T06:04:09.043Z,95.84
2016-12-14T06:05:24.972Z,96.41
2016-12-14T06:06:40.934Z,96.03
2016-12-14T06:07:57.142Z,95.65
2016-12-14T06:09:11.957Z,95.75
2016-12-14T06:10:27.064Z,96.03
2016-12-14T06:11:43.113Z,96.03
2016-12-14T06:12:59.696Z,96.22
2016-12-14T06:14:14.371Z,95.65
2016-12-14T06:15:29.393Z,95.75
2016-12-14T06:16:46.551Z,96.12
2016-12-14T06:17:59.371Z,95.65
2016-12-14T06:19:13.087Z,95.75
2016-12-14T06:20:27.535Z,95.75
2016-12-14T06:21:43.862Z,95.75
2016-12-14T06:22:59.766Z,95.84
2016-12-14T06:24:15.439Z,95.75
2016-12-14T06:25:32.330Z,95.84
2016-12-14T06:26:47.405Z,95.75
2016-12-14T06:28:02.261Z,95.75
2016-12-14T06:29:17.123Z,95.65
2016-12-14T06:30:31.152Z,96.03
2016-12-14T06:31:46.354Z,95.84
2016-12-14T06:33:02.869Z,95.75
2016-12-14T06:34:18.104Z,95.75
2016-12-14T06:35:34.147Z,95.75
2016-12-14T06:36:51.027Z,95.75
2016-12-14T06:38:06.521Z,95.65
2016-12-14T06:39:20.420Z,95.94
2016-12-14T06:40:36.753Z,95.56
2016-12-14T06:41:51.538Z,95.75
2016-12-14T06:43:04.753Z,96.03
2016-12-14T06:44:19.910Z,95.75
2016-12-14T06:45:32.991Z,95.75
2016-12-14T06:46:48.900Z,95.75
2016-12-14T06:48:04.006Z,95.84
2016-12-14T06:49:17.634Z,95.84
2016-12-14T06:50:32.467Z,95.75
2016-12-14T06:51:46.909Z,95.46
2016-12-14T06:53:03.629Z,95.56
2016-12-14T06:54:17.650Z,96.22
2016-12-14T06:55:33.542Z,95.75
2016-12-14T06:56:49.742Z,95.84
2016-12-14T06:58:04.611Z,96.12
2016-12-14T06:59:16.607Z,96.12
2016-12-14T07:00:28.500Z,96.22
2016-12-14T07:01:43.337Z,96.03
2016-12-14T07:02:58.360Z,95.65
2016-12-14T07:04:12.670Z,96.12
2016-12-14T07:05:29.186Z,96.41
2016-12-14T07:06:45.650Z,96.5
2016-12-14T07:08:01.199Z,96.89
2016-12-14T07:09:15.441Z,96.41
2016-12-14T07:10:30.148Z,96.69
2016-12-14T07:11:45.517Z,96.31
2016-12-14T07:13:00.308Z,96.6
2016-12-14T07:14:13.046Z,96.69
2016-12-14T07:15:26.728Z,96.5
2016-12-14T07:16:41.487Z,96.6
2016-12-14T07:17:56.149Z,96.69
2016-12-14T07:19:09.406Z,96.79
2016-12-14T07:20:22.807Z,96.6
2016-12-14T07:21:37.235Z,96.79
2016-12-14T07:22:53.661Z,96.5
2016-12-14T07:24:09.728Z,96.69
2016-12-14T07:25:24.438Z,96.5
2016-12-14T07:26:38.770Z,96.6
2016-12-14T07:27:55.333Z,96.89
2016-12-14T07:29:09.812Z,96.89
2016-12-14T07:30:25.127Z,96.69
2016-12-14T07:31:41.719Z,96.89
2016-12-14T07:32:56.979Z,96.89
2016-12-14T07:34:11.206Z,97.08
2016-12-14T07:35:26.269Z,97.08
2016-12-14T07:36:40.893Z,97.36
2016-12-14T07:37:56.925Z,97.17
2016-12-14T07:39:12.068Z,97.36
2016-12-14T07:40:28.519Z,97.36
2016-12-14T07:41:44.851Z,97.27
2016-12-14T07:42:57.849Z,97.36
2016-12-14T07:44:10.588Z,97.55
2016-12-14T07:45:27.037Z,97.74
2016-12-14T07:46:43.332Z,97.64
2016-12-14T07:47:59.636Z,97.83
2016-12-14T07:49:13.143Z,97.55
2016-12-14T07:50:28.213Z,98.31
2016-12-14T07:51:44.353Z,97.64
2016-12-14T07:52:59.043Z,98.41
2016-12-14T07:54:13.690Z,98.22
2016-12-14T07:55:26.759Z,98.22
2016-12-14T07:56:43.050Z,98.5
2016-12-14T07:57:59.398Z,98.12
2016-12-14T07:59:14.651Z,98.03
2016-12-14T08:00:29.249Z,98.12
2016-12-14T08:01:45.141Z,98.5
2016-12-14T08:02:59.837Z,97.64
2016-12-14T08:04:16.211Z,97.45
2016-12-14T08:05:30.765Z,97.55
2016-12-14T08:06:46.006Z,97.64
2016-12-14T08:08:01.355Z,97.45
2016-12-14T08:09:18.321Z,97.64
2016-12-14T08:10:33.395Z,97.64
2016-12-14T08:11:48.874Z,97.74
2016-12-14T08:13:04.014Z,97.45
2016-12-14T08:14:18.620Z,97.55
2016-12-14T08:15:34.793Z,97.36
2016-12-14T08:16:50.879Z,97.17
2016-12-14T08:18:06.693Z,97.27
2016-12-14T08:19:20.093Z,97.64
2016-12-14T08:20:35.061Z,97.45
2016-12-14T08:21:49.937Z,97.45
2016-12-14T08:23:05.006Z,97.45
2016-12-14T08:24:20.099Z,97.55
2016-12-14T08:25:34.709Z,97.55
2016-12-14T08:26:49.318Z,97.36
2016-12-14T08:28:05.429Z,97.27
2016-12-14T08:29:19.706Z,97.55
2016-12-14T08:30:36.443Z,97.36
2016-12-14T08:31:52.746Z,97.55
2016-12-14T08:33:08.200Z,97.45
2016-12-14T08:34:24.406Z,97.45
2016-12-14T08:35:40.718Z,97.36
2016-12-14T08:36:57.079Z,97.27
2016-12-14T08:38:11.777Z,97.6
2016-12-14T08:39:27.431Z,97.55
2016-12-14T08:40:42.261Z,97.41
2016-12-14T08:41:56.612Z,97.41
2016-12-14T08:43:12.993Z,97.6
2016-12-14T08:44:29.705Z,97.55
2016-12-14T08:45:44.144Z,97.36
2016-12-14T08:46:57.002Z,97.45
2016-12-14T08:48:12.047Z,97.5
2016-12-14T08:49:28.534Z,97.5
2016-12-14T08:50:41.386Z,97.69
2016-12-14T08:51:55.711Z,97.41
2016-12-14T08:53:09.509Z,97.41
2016-12-14T08:54:22.960Z,97.27
2016-12-14T08:55:37.906Z,97.36
2016-12-14T08:56:53.607Z,97.5
2016-12-14T08:58:09.381Z,97.45
2016-12-14T08:59:25.260Z,97.45
2016-12-14T09:00:41.658Z,97.64
2016-12-14T09:01:56.086Z,97.79
2016-12-14T09:03:12.257Z,97.64
2016-12-14T09:04:27.608Z,97.45
2016-12-14T09:05:42.876Z,97.64
2016-12-14T09:06:58.122Z,98.17
2016-12-14T09:08:14.578Z,97.69
2016-12-14T09:09:29.310Z,98.27
2016-12-14T09:10:46.463Z,98.36
2016-12-14T09:12:00.009Z,98.46
2016-12-14T09:13:15.047Z,98.17
2016-12-14T09:14:29.668Z,97.5
2016-12-14T09:15:46.415Z,97.79
2016-12-14T09:17:02.284Z,97.69
2016-12-14T09:18:18.620Z,98.17
2016-12-14T09:19:31.843Z,98.08
2016-12-14T09:20:47.134Z,98.08
2016-12-14T09:22:02.596Z,98.17
2016-12-14T09:23:17.703Z,98.36
2016-12-14T09:24:32.556Z,97.88
2016-12-14T09:25:49.008Z,98.46
2016-12-14T09:27:03.477Z,98.36
2016-12-14T09:28:19.850Z,98.46
2016-12-14T09:29:34.209Z,97.88
2016-12-14T09:30:47.585Z,98.17
2016-12-14T09:32:00.715Z,98.55
2016-12-14T09:33:15.455Z,98.17
2016-12-14T09:34:30.191Z,98.46
2016-12-14T09:35:46.674Z,98.46
2016-12-14T09:37:00.620Z,98.08
2016-12-14T09:38:14.216Z,98.08
2016-12-14T09:39:27.516Z,97.88
2016-12-14T09:40:44.505Z,98.31
2016-12-14T09:41:59.927Z,98.03
2016-12-14T09:43:13.885Z,98.46
2016-12-14T09:44:28.482Z,98.36
2016-12-14T09:45:43.330Z,98.36
2016-12-14T09:46:59.664Z,98.36
2016-12-14T09:48:13.056Z,98.08
2016-12-14T09:49:26.094Z,98.36
2016-12-14T09:50:40.271Z,98.17
2016-12-14T09:51:57.059Z,98.17
2016-12-14T09:53:13.048Z,97.69
2016-12-14T09:54:27.809Z,97.22
2016-12-14T09:55:44.965Z,97.69
2016-12-14T09:56:58.122Z,97.69
2016-12-14T09:58:12.730Z,97.69
2016-12-14T09:59:27.529Z,97.5
2016-12-14T10:00:39.480Z,97.69
2016-12-14T10:01:54.721Z,97.5
2016-12-14T10:03:10.871Z,97.41
2016-12-14T10:04:25.639Z,97.79
2016-12-14T10:05:42.008Z,97.79
2016-12-14T10:06:55.500Z,97.5
2016-12-14T10:08:11.954Z,97.5
2016-12-14T10:09:26.349Z,97.5
2016-12-14T10:10:42.082Z,97.31
2016-12-14T10:11:57.931Z,97.41
2016-12-14T10:13:14.360Z,97.31
2016-12-14T10:14:30.855Z,97.46
2016-12-14T10:15:44.742Z,96.84
2016-12-14T10:17:01.605Z,97.08
2016-12-14T10:18:16.216Z,96.51
2016-12-14T10:19:30.909Z,96.41
2016-12-14T10:20:47.646Z,96.03
2016-12-14T10:22:04.412Z,95.84
2016-12-14T10:23:20.593Z,95.84
2016-12-14T10:24:35.313Z,95.84
2016-12-14T10:25:50.048Z,96.03
2016-12-14T10:27:03.610Z,95.94
2016-12-14T10:28:18.330Z,95.65
2016-12-14T10:29:31.569Z,95.84
2016-12-14T10:30:46.068Z,95.22
2016-12-14T10:32:01.513Z,95.56
2016-12-14T10:33:13.788Z,95.46
2016-12-14T10:34:28.594Z,95.56
2016-12-14T10:35:41.938Z,95.22
2016-12-14T10:36:56.622Z,95.46
2016-12-14T10:38:10.669Z,95.46
2016-12-14T10:39:26.497Z,95.65
2016-12-14T10:40:41.365Z,95.94
2016-12-14T10:41:55.754Z,95.46
2016-12-14T10:43:11.497Z,95.65
2016-12-14T10:44:26.609Z,95.46
2016-12-14T10:45:42.957Z,94.98
2016-12-14T10:46:56.350Z,95.65
2016-12-14T10:48:10.920Z,95.46
2016-12-14T10:49:22.552Z,95.46
2016-12-14T10:50:37.623Z,95.08
2016-12-14T10:51:52.957Z,94.98
2016-12-14T10:53:08.859Z,94.98
2016-12-14T10:54:24.848Z,95.27
2016-12-14T10:55:39.864Z,94.79
2016-12-14T10:56:56.450Z,95.27
2016-12-14T10:58:09.827Z,94.7
2016-12-14T10:59:23.347Z,94.79
2016-12-14T11:00:38.643Z,94.79
2016-12-14T11:01:52.340Z,94.79
2016-12-14T11:03:08.687Z,94.42
2016-12-14T11:04:23.128Z,94.51
2016-12-14T11:05:38.147Z,94.7
2016-12-14T11:06:55.021Z,94.7
2016-12-14T11:08:10.514Z,94.7
2016-12-14T11:09:27.053Z,94.89
2016-12-14T11:10:41.811Z,94.89
2016-12-14T11:11:57.703Z,94.7
2016-12-14T11:13:12.620Z,94.42
2016-12-14T11:14:26.535Z,94.32
2016-12-14T11:15:40.200Z,94.42
2016-12-14T11:16:53.322Z,94.13
2016-12-14T11:18:09.552Z,94.22
2016-12-14T11:19:26.528Z,94.42
2016-12-14T11:20:40.641Z,94.32
2016-12-14T11:21:54.283Z,94.7
2016-12-14T11:23:09.300Z,94.51
2016-12-14T11:24:22.640Z,94.32
2016-12-14T11:25:37.546Z,94.6
2016-12-14T11:26:52.643Z,94.42
2016-12-14T11:28:07.260Z,94.51
2016-12-14T11:29:24.473Z,93.55
2016-12-14T11:30:39.470Z,93.46
2016-12-14T11:31:53.219Z,94.42
2016-12-14T11:33:08.186Z,94.03
2016-12-14T11:34:24.949Z,94.6
2016-12-14T11:35:40.024Z,94.32
2016-12-14T11:36:55.294Z,94.42
2016-12-14T11:38:09.850Z,93.84
2016-12-14T11:39:26.385Z,93.84
2016-12-14T11:40:42.709Z,93.74
2016-12-14T11:41:57.467Z,93.84
2016-12-14T11:43:11.927Z,93.46
2016-12-14T11:44:28.698Z,93.27
2016-12-14T11:45:43.825Z,93.46
2016-12-14T11:46:58.763Z,93.37
2016-12-14T11:48:11.928Z,93.94
2016-12-14T11:49:27.916Z,93.65
2016-12-14T11:50:42.369Z,93.37
2016-12-14T11:51:55.555Z,93.55
2016-12-14T11:53:10.592Z,92.55
2016-12-14T11:54:27.048Z,92.79
2016-12-14T11:55:41.597Z,93.37
2016-12-14T11:56:56.432Z,92.99
2016-12-14T11:58:11.435Z,92.55
2016-12-14T11:59:27.804Z,93.46
2016-12-14T12:00:42.120Z,92.7
2016-12-14T12:01:55.754Z,93.08
2016-12-14T12:03:09.418Z,92.7
2016-12-14T12:04:23.915Z,92.6
2016-12-14T12:05:37.113Z,92.84
2016-12-14T12:06:53.513Z,92.55
2016-12-14T12:08:07.841Z,92.65
2016-12-14T12:09:22.917Z,92.65
2016-12-14T12:10:36.058Z,92.46
2016-12-14T12:11:52.215Z,92.55
2016-12-14T12:13:04.425Z,92.94
2016-12-14T12:14:21.080Z,92.74
2016-12-14T12:15:37.646Z,92.65
2016-12-14T12:16:53.740Z,92.74
2016-12-14T12:18:07.784Z,92.79
2016-12-14T12:19:21.252Z,92.22
2016-12-14T12:20:35.862Z,92.22
2016-12-14T12:21:50.049Z,92.6
2016-12-14T12:23:05.989Z,92.79
2016-12-14T12:24:20.925Z,92.7
2016-12-14T12:25:37.122Z,92.51
2016-12-14T12:26:52.621Z,92.99
2016-12-14T12:28:07.876Z,93.27
2016-12-14T12:29:22.824Z,92.99
2016-12-14T12:30:38.786Z,92.6
2016-12-14T12:31:53.477Z,92.99
2016-12-14T12:33:06.311Z,92.7
2016-12-14T12:34:22.507Z,92.99
2016-12-14T12:35:36.346Z,92.51
2016-12-14T12:36:49.956Z,92.6
2016-12-14T12:38:06.117Z,92.6
2016-12-14T12:39:19.286Z,92.65
2016-12-14T12:40:34.154Z,92.6
2016-12-14T12:41:47.506Z,92.79
2016-12-14T12:43:04.352Z,92.65
2016-12-14T12:44:21.306Z,92.65
2016-12-14T12:45:36.001Z,92.84
2016-12-14T12:46:50.931Z,92.46
2016-12-14T12:48:07.234Z,92.84
2016-12-14T12:49:19.584Z,92.08
2016-12-14T12:50:35.488Z,92.27
2016-12-14T12:51:47.336Z,91.79
2016-12-14T12:53:02.869Z,91.99
2016-12-14T12:54:17.907Z,92.13
2016-12-14T12:55:32.767Z,92.55
2016-12-14T12:56:44.544Z,92.18
2016-12-14T12:58:00.196Z,92.08
2016-12-14T12:59:16.872Z,91.89
2016-12-14T13:00:31.989Z,91.7
2016-12-14T13:01:45.315Z,91.6
2016-12-14T13:03:01.367Z,91.6
2016-12-14T13:04:14.962Z,92.18
2016-12-14T13:05:28.452Z,92.08
2016-12-14T13:06:43.713Z,91.6
2016-12-14T13:07:57.101Z,91.89
2016-12-14T13:09:10.573Z,92.18
2016-12-14T13:10:25.262Z,92.27
2016-12-14T13:11:40.101Z,92.08
2016-12-14T13:12:55.198Z,92.08
2016-12-14T13:14:11.732Z,92.08
2016-12-14T13:15:26.738Z,91.6
2016-12-14T13:16:41.518Z,91.7
2016-12-14T13:17:54.619Z,91.89
2016-12-14T13:19:09.536Z,91.89
2016-12-14T13:20:25.905Z,91.89
2016-12-14T13:21:41.931Z,91.6
2016-12-14T13:22:56.641Z,91.79
2016-12-14T13:24:13.232Z,91.22
2016-12-14T13:25:26.489Z,90.94
2016-12-14T13:26:42.872Z,91.31
2016-12-14T13:27:56.210Z,91.22
2016-12-14T13:29:11.091Z,90.75
2016-12-14T13:30:26.185Z,90.75
2016-12-14T13:31:40.790Z,90.56
2016-12-14T13:32:55.256Z,90.08
2016-12-14T13:34:08.730Z,90.36
2016-12-14T13:35:25.464Z,89.98
2016-12-14T13:36:42.203Z,90.22
2016-12-14T13:37:57.055Z,89.79
2016-12-14T13:39:11.355Z,90.12
2016-12-14T13:40:26.112Z,90.41
2016-12-14T13:41:41.301Z,89.79
2016-12-14T13:42:57.560Z,90.17
2016-12-14T13:44:11.974Z,90.36
2016-12-14T13:45:25.159Z,90.17
2016-12-14T13:46:41.524Z,90.17
2016-12-14T13:47:56.349Z,89.89
2016-12-14T13:49:12.952Z,90.36
2016-12-14T13:50:29.136Z,90.27
2016-12-14T13:51:43.821Z,90.27
2016-12-14T13:52:56.160Z,90.27
2016-12-14T13:54:12.060Z,89.79
2016-12-14T13:55:24.241Z,90.56
2016-12-14T13:56:40.330Z,90.84
2016-12-14T13:57:56.761Z,90.46
2016-12-14T13:59:09.545Z,91.03
2016-12-14T14:00:24.552Z,90.94
2016-12-14T14:01:40.914Z,90.75
2016-12-14T14:02:56.717Z,90.94
2016-12-14T14:04:13.932Z,91.22
2016-12-14T14:05:27.899Z,91.31
2016-12-14T14:06:43.278Z,91.13
2016-12-14T14:07:59.779Z,90.94
2016-12-14T14:09:13.503Z,91.13
2016-12-14T14:10:27.977Z,90.84
2016-12-14T14:11:42.064Z,91.22
2016-12-14T14:12:55.822Z,91.79
2016-12-14T14:14:10.191Z,91.6
2016-12-14T14:15:24.829Z,91.7
2016-12-14T14:16:36.796Z,91.51
2016-12-14T14:17:53.548Z,91.7
2016-12-14T14:19:10.287Z,91.6
2016-12-14T14:20:26.710Z,91.89
2016-12-14T14:21:42.972Z,91.79
2016-12-14T14:22:59.546Z,91.31
2016-12-14T14:24:15.124Z,91.13
2016-12-14T14:25:31.606Z,91.13
2016-12-14T14:26:48.026Z,90.75
2016-12-14T14:28:03.425Z,91.13
2016-12-14T14:29:16.647Z,91.13
2016-12-14T14:30:33.261Z,91.13
2016-12-14T14:31:49.031Z,91.03
2016-12-14T14:33:04.405Z,91.03
2016-12-14T14:34:20.339Z,91.03
2016-12-14T14:35:35.029Z,91.22
2016-12-14T14:36:51.529Z,91.22
2016-12-14T14:38:07.851Z,91.31
2016-12-14T14:39:22.740Z,90.75
2016-12-14T14:40:39.127Z,90.75
2016-12-14T14:41:55.322Z,90.75
2016-12-14T14:43:11.672Z,91.03
2016-12-14T14:44:28.041Z,90.94
2016-12-14T14:45:44.458Z,91.31
2016-12-14T14:46:58.899Z,91.22
2016-12-14T14:48:11.838Z,91.99
2016-12-14T14:49:23.730Z,91.6
2016-12-14T14:50:38.933Z,91.79
2016-12-14T14:51:55.492Z,91.51
2016-12-14T14:53:10.422Z,91.99
2016-12-14T14:54:25.440Z,92.18
2016-12-14T14:55:40.076Z,91.89
2016-12-14T14:56:55.343Z,91.7
2016-12-14T14:58:10.155Z,92.46
2016-12-14T14:59:26.563Z,91.89
2016-12-14T15:00:39.705Z,92.74
2016-12-14T15:01:52.953Z,92.7
2016-12-14T15:03:07.327Z,92.79
2016-12-14T15:04:21.279Z,92.7
2016-12-14T15:05:33.458Z,93.18
2016-12-14T15:06:49.876Z,92.89
2016-12-14T15:08:03.422Z,93.18
2016-12-14T15:09:20.382Z,93.46
2016-12-14T15:10:36.995Z,93.55
2016-12-14T15:11:51.682Z,93.94
2016-12-14T15:13:06.525Z,93.46
2016-12-14T15:14:22.831Z,93.65
2016-12-14T15:15:39.775Z,93.84
2016-12-14T15:16:56.179Z,93.65
2016-12-14T15:18:12.148Z,93.84
2016-12-14T15:19:25.608Z,94.32
2016-12-14T15:20:40.334Z,94.03
2016-12-14T15:21:56.888Z,94.51
2016-12-14T15:23:09.297Z,94.42
2016-12-14T15:24:23.032Z,94.7
2016-12-14T15:25:37.664Z,94.32
2016-12-14T15:26:52.426Z,94.13
2016-12-14T15:28:06.721Z,93.94
2016-12-14T15:29:21.577Z,94.22
2016-12-14T15:30:34.915Z,94.89
2016-12-14T15:31:49.366Z,94.89
2016-12-14T15:33:01.300Z,94.6
2016-12-14T15:34:16.640Z,94.79
2016-12-14T15:35:30.112Z,94.7
2016-12-14T15:36:44.815Z,94.7
2016-12-14T15:38:01.155Z,94.7
2016-12-14T15:39:18.279Z,94.6
2016-12-14T15:40:33.041Z,94.79
2016-12-14T15:41:48.980Z,94.7
2016-12-14T15:43:05.383Z,95.36
2016-12-14T15:44:21.930Z,95.32
2016-12-14T15:45:38.292Z,95.08
2016-12-14T15:46:53.541Z,95.08
2016-12-14T15:48:08.511Z,94.93
2016-12-14T15:49:21.780Z,95.12
2016-12-14T15:50:33.895Z,94.93
2016-12-14T15:51:48.777Z,95.12
2016-12-14T15:53:03.186Z,95.41
2016-12-14T15:54:17.622Z,95.22
2016-12-14T15:55:33.238Z,95.89
2016-12-14T15:56:49.247Z,95.56
2016-12-14T15:58:03.224Z,95.94
2016-12-14T15:59:20.277Z,95.94
2016-12-14T16:00:36.586Z,95.36
2016-12-14T16:01:50.319Z,95.46
2016-12-14T16:03:05.927Z,95.6
2016-12-14T16:04:20.930Z,95.89
2016-12-14T16:05:36.279Z,96.36
2016-12-14T16:06:53.137Z,96.08
2016-12-14T16:08:08.192Z,96.17
2016-12-14T16:09:23.866Z,95.89